sensor_id;sensor_type;location;lat;lon;timestamp;P1;durP1;ratioP1;P2;durP2;ratioP2
61373;SDS011;47242;48.158;-1.586;2024-03-02T05:31:19;0.10;;;0.10;;
61373;SDS011;47242;48.158;-1.586;2024-03-02T05:33:45;0.10;;;0.10;;
61373;SDS011;47242;48.158;-1.586;2024-03-02T05:36:10;0.10;;;0.10;;
61373;SDS011;47242;48.158;-1.586;2024-03-02T05:38:36;0.10;;;0.10;;
61373;SDS011;47242;48.158;-1.586;2024-03-02T05:41:02;0.10;;;0.10;;
61373;SDS011;47242;48.158;-1.586;2024-03-02T05:43:28;0.10;;;0.10;;
61373;SDS011;47242;48.158;-1.586;2024-03-02T05:45:53;0.10;;;0.10;;
61373;SDS011;47242;48.158;-1.586;2024-03-02T05:48:19;0.10;;;0.10;;
61373;SDS011;47242;48.158;-1.586;2024-03-02T05:50:45;0.10;;;0.10;;
61373;SDS011;47242;48.158;-1.586;2024-03-02T05:53:10;0.10;;;0.10;;
61373;SDS011;47242;48.158;-1.586;2024-03-02T05:55:36;0.10;;;0.10;;
61373;SDS011;47242;48.158;-1.586;2024-03-02T05:58:02;0.10;;;0.10;;
61373;SDS011;47242;48.158;-1.586;2024-03-02T06:00:50;0.15;;;0.15;;
61373;SDS011;47242;48.158;-1.586;2024-03-02T06:03:16;0.10;;;0.10;;
61373;SDS011;47242;48.158;-1.586;2024-03-02T06:05:42;0.10;;;0.10;;
61373;SDS011;47242;48.158;-1.586;2024-03-02T06:08:07;0.10;;;0.10;;
61373;SDS011;47242;48.158;-1.586;2024-03-02T06:10:33;0.20;;;0.20;;
61373;SDS011;47242;48.158;-1.586;2024-03-02T06:12:58;0.10;;;0.10;;
61373;SDS011;47242;48.158;-1.586;2024-03-02T06:15:24;0.10;;;0.10;;
61373;SDS011;47242;48.158;-1.586;2024-03-02T06:17:50;0.10;;;0.10;;
61373;SDS011;47242;48.158;-1.586;2024-03-02T06:20:15;0.10;;;0.10;;
61373;SDS011;47242;48.158;-1.586;2024-03-02T06:22:41;0.10;;;0.10;;
61373;SDS011;47242;48.158;-1.586;2024-03-02T06:25:06;0.10;;;0.10;;
61373;SDS011;47242;48.158;-1.586;2024-03-02T06:27:32;0.10;;;0.10;;
61373;SDS011;47242;48.158;-1.586;2024-03-02T06:29:58;0.10;;;0.10;;
61373;SDS011;47242;48.158;-1.586;2024-03-02T06:32:23;0.10;;;0.10;;
61373;SDS011;47242;48.158;-1.586;2024-03-02T06:34:50;0.10;;;0.10;;
61373;SDS011;47242;48.158;-1.586;2024-03-02T06:37:15;0.10;;;0.10;;
61373;SDS011;47242;48.158;-1.586;2024-03-02T06:39:41;0.10;;;0.10;;
61373;SDS011;47242;48.158;-1.586;2024-03-02T06:42:07;0.10;;;0.10;;
61373;SDS011;47242;48.158;-1.586;2024-03-02T06:44:33;0.10;;;0.10;;
61373;SDS011;47242;48.158;-1.586;2024-03-02T06:46:59;0.10;;;0.10;;
61373;SDS011;47242;48.158;-1.586;2024-03-02T06:49:24;0.13;;;0.13;;
61373;SDS011;47242;48.158;-1.586;2024-03-02T06:51:50;0.10;;;0.10;;
61373;SDS011;47242;48.158;-1.586;2024-03-02T06:54:16;0.20;;;0.20;;
61373;SDS011;47242;48.158;-1.586;2024-03-02T06:56:42;0.15;;;0.15;;
61373;SDS011;47242;48.158;-1.586;2024-03-02T06:59:07;0.10;;;0.10;;
61373;SDS011;47242;48.158;-1.586;2024-03-02T07:01:33;0.10;;;0.10;;
61373;SDS011;47242;48.158;-1.586;2024-03-02T07:03:59;0.10;;;0.10;;
61373;SDS011;47242;48.158;-1.586;2024-03-02T07:06:25;0.10;;;0.10;;
61373;SDS011;47242;48.158;-1.586;2024-03-02T07:08:50;0.10;;;0.10;;
61373;SDS011;47242;48.158;-1.586;2024-03-02T07:11:16;0.10;;;0.10;;
61373;SDS011;47242;48.158;-1.586;2024-03-02T07:13:41;0.10;;;0.10;;
61373;SDS011;47242;48.158;-1.586;2024-03-02T07:16:07;0.10;;;0.10;;
61373;SDS011;47242;48.158;-1.586;2024-03-02T07:18:35;0.10;;;0.10;;
61373;SDS011;47242;48.158;-1.586;2024-03-02T07:21:09;0.15;;;0.15;;
61373;SDS011;47242;48.158;-1.586;2024-03-02T07:23:35;0.20;;;0.20;;
61373;SDS011;47242;48.158;-1.586;2024-03-02T07:26:01;0.10;;;0.10;;
61373;SDS011;47242;48.158;-1.586;2024-03-02T07:28:27;0.10;;;0.10;;
61373;SDS011;47242;48.158;-1.586;2024-03-02T07:31:02;0.10;;;0.10;;
61373;SDS011;47242;48.158;-1.586;2024-03-02T07:33:29;0.10;;;0.10;;
61373;SDS011;47242;48.158;-1.586;2024-03-02T07:35:56;0.10;;;0.10;;
61373;SDS011;47242;48.158;-1.586;2024-03-02T07:38:22;0.20;;;0.20;;
61373;SDS011;47242;48.158;-1.586;2024-03-02T07:40:51;0.10;;;0.10;;
61373;SDS011;47242;48.158;-1.586;2024-03-02T07:43:17;0.10;;;0.10;;
61373;SDS011;47242;48.158;-1.586;2024-03-02T07:45:44;0.10;;;0.10;;
61373;SDS011;47242;48.158;-1.586;2024-03-02T07:48:10;0.10;;;0.10;;
61373;SDS011;47242;48.158;-1.586;2024-03-02T07:50:35;0.13;;;0.13;;
61373;SDS011;47242;48.158;-1.586;2024-03-02T07:53:02;0.20;;;0.20;;
61373;SDS011;47242;48.158;-1.586;2024-03-02T07:55:28;0.10;;;0.10;;
61373;SDS011;47242;48.158;-1.586;2024-03-02T07:57:55;0.20;;;0.20;;
61373;SDS011;47242;48.158;-1.586;2024-03-02T08:00:21;0.32;;;0.32;;
61373;SDS011;47242;48.158;-1.586;2024-03-02T08:02:47;0.20;;;0.20;;
61373;SDS011;47242;48.158;-1.586;2024-03-02T08:05:13;0.30;;;0.30;;
61373;SDS011;47242;48.158;-1.586;2024-03-02T08:07:39;0.20;;;0.20;;
61373;SDS011;47242;48.158;-1.586;2024-03-02T08:10:06;0.30;;;0.30;;
61373;SDS011;47242;48.158;-1.586;2024-03-02T08:12:32;0.20;;;0.20;;
61373;SDS011;47242;48.158;-1.586;2024-03-02T08:14:57;0.10;;;0.10;;
61373;SDS011;47242;48.158;-1.586;2024-03-02T08:17:23;0.10;;;0.10;;
61373;SDS011;47242;48.158;-1.586;2024-03-02T08:19:48;0.10;;;0.10;;
61373;SDS011;47242;48.158;-1.586;2024-03-02T08:22:14;0.10;;;0.10;;
61373;SDS011;47242;48.158;-1.586;2024-03-02T08:24:40;0.10;;;0.10;;
61373;SDS011;47242;48.158;-1.586;2024-03-02T08:27:06;0.10;;;0.10;;
61373;SDS011;47242;48.158;-1.586;2024-03-02T08:29:31;0.13;;;0.13;;
61373;SDS011;47242;48.158;-1.586;2024-03-02T08:31:57;0.20;;;0.20;;
61373;SDS011;47242;48.158;-1.586;2024-03-02T08:34:23;0.13;;;0.13;;
61373;SDS011;47242;48.158;-1.586;2024-03-02T08:36:48;0.20;;;0.20;;
61373;SDS011;47242;48.158;-1.586;2024-03-02T08:39:14;0.20;;;0.20;;
61373;SDS011;47242;48.158;-1.586;2024-03-02T08:41:46;0.20;;;0.20;;
61373;SDS011;47242;48.158;-1.586;2024-03-02T08:44:13;0.20;;;0.20;;
61373;SDS011;47242;48.158;-1.586;2024-03-02T08:46:39;0.20;;;0.20;;
61373;SDS011;47242;48.158;-1.586;2024-03-02T08:49:05;0.20;;;0.20;;
61373;SDS011;47242;48.158;-1.586;2024-03-02T08:51:31;0.20;;;0.20;;
61373;SDS011;47242;48.158;-1.586;2024-03-02T08:53:57;0.20;;;0.20;;
61373;SDS011;47242;48.158;-1.586;2024-03-02T08:56:24;0.10;;;0.10;;
61373;SDS011;47242;48.158;-1.586;2024-03-02T08:58:50;0.20;;;0.20;;
61373;SDS011;47242;48.158;-1.586;2024-03-02T09:01:17;0.20;;;0.20;;
61373;SDS011;47242;48.158;-1.586;2024-03-02T09:03:43;0.30;;;0.30;;
61373;SDS011;47242;48.158;-1.586;2024-03-02T09:06:12;0.30;;;0.30;;
61373;SDS011;47242;48.158;-1.586;2024-03-02T09:08:39;0.20;;;0.20;;
61373;SDS011;47242;48.158;-1.586;2024-03-02T09:11:05;0.20;;;0.20;;
61373;SDS011;47242;48.158;-1.586;2024-03-02T09:13:31;0.10;;;0.10;;
61373;SDS011;47242;48.158;-1.586;2024-03-02T09:15:58;0.20;;;0.20;;
61373;SDS011;47242;48.158;-1.586;2024-03-02T09:18:23;0.10;;;0.10;;
61373;SDS011;47242;48.158;-1.586;2024-03-02T09:20:49;0.20;;;0.20;;
61373;SDS011;47242;48.158;-1.586;2024-03-02T09:23:15;0.20;;;0.20;;
61373;SDS011;47242;48.158;-1.586;2024-03-02T09:25:40;0.20;;;0.20;;
61373;SDS011;47242;48.158;-1.586;2024-03-02T09:28:06;0.57;;;0.57;;
61373;SDS011;47242;48.158;-1.586;2024-03-02T09:30:32;0.80;;;0.80;;
61373;SDS011;47242;48.158;-1.586;2024-03-02T09:32:58;2.20;;;2.10;;
61373;SDS011;47242;48.158;-1.586;2024-03-02T09:35:24;3.70;;;3.50;;
61373;SDS011;47242;48.158;-1.586;2024-03-02T09:37:49;3.38;;;3.17;;
61373;SDS011;47242;48.158;-1.586;2024-03-02T09:40:15;2.58;;;2.38;;
61373;SDS011;47242;48.158;-1.586;2024-03-02T09:42:41;1.65;;;1.55;;
61373;SDS011;47242;48.158;-1.586;2024-03-02T09:45:08;3.08;;;2.88;;
61373;SDS011;47242;48.158;-1.586;2024-03-02T09:47:34;1.80;;;1.70;;
61373;SDS011;47242;48.158;-1.586;2024-03-02T09:50:00;0.80;;;0.80;;
61373;SDS011;47242;48.158;-1.586;2024-03-02T09:52:26;0.40;;;0.40;;
61373;SDS011;47242;48.158;-1.586;2024-03-02T09:54:52;0.50;;;0.50;;
61373;SDS011;47242;48.158;-1.586;2024-03-02T09:57:17;0.30;;;0.30;;
61373;SDS011;47242;48.158;-1.586;2024-03-02T09:59:43;1.10;;;1.10;;
61373;SDS011;47242;48.158;-1.586;2024-03-02T10:02:10;1.10;;;1.10;;
61373;SDS011;47242;48.158;-1.586;2024-03-02T10:04:36;2.20;;;2.10;;
61373;SDS011;47242;48.158;-1.586;2024-03-02T10:07:11;1.63;;;1.52;;
61373;SDS011;47242;48.158;-1.586;2024-03-02T10:09:37;0.40;;;0.40;;
61373;SDS011;47242;48.158;-1.586;2024-03-02T10:12:03;1.35;;;1.25;;
61373;SDS011;47242;48.158;-1.586;2024-03-02T10:14:30;2.30;;;2.20;;
61373;SDS011;47242;48.158;-1.586;2024-03-02T10:17:01;2.80;;;2.60;;
61373;SDS011;47242;48.158;-1.586;2024-03-02T10:19:31;0.40;;;0.40;;
61373;SDS011;47242;48.158;-1.586;2024-03-02T10:22:03;0.20;;;0.20;;
61373;SDS011;47242;48.158;-1.586;2024-03-02T10:24:40;0.10;;;0.10;;
61373;SDS011;47242;48.158;-1.586;2024-03-02T10:27:10;0.20;;;0.20;;
61373;SDS011;47242;48.158;-1.586;2024-03-02T10:29:41;0.10;;;0.10;;
61373;SDS011;47242;48.158;-1.586;2024-03-02T10:32:10;0.10;;;0.10;;
61373;SDS011;47242;48.158;-1.586;2024-03-02T10:34:36;0.10;;;0.10;;
61373;SDS011;47242;48.158;-1.586;2024-03-02T10:37:03;0.10;;;0.10;;
61373;SDS011;47242;48.158;-1.586;2024-03-02T10:39:30;0.10;;;0.10;;
61373;SDS011;47242;48.158;-1.586;2024-03-02T10:41:56;0.20;;;0.20;;
61373;SDS011;47242;48.158;-1.586;2024-03-02T10:44:23;0.20;;;0.20;;
61373;SDS011;47242;48.158;-1.586;2024-03-02T10:46:50;0.20;;;0.20;;
61373;SDS011;47242;48.158;-1.586;2024-03-02T10:49:18;0.20;;;0.20;;
61373;SDS011;47242;48.158;-1.586;2024-03-02T10:51:45;0.20;;;0.20;;
61373;SDS011;47242;48.158;-1.586;2024-03-02T10:54:11;0.20;;;0.20;;
61373;SDS011;47242;48.158;-1.586;2024-03-02T10:56:40;0.10;;;0.10;;
61373;SDS011;47242;48.158;-1.586;2024-03-02T11:01:58;0.10;;;0.10;;
61373;SDS011;47242;48.158;-1.586;2024-03-02T11:04:28;0.10;;;0.10;;
61373;SDS011;47242;48.158;-1.586;2024-03-02T11:06:56;0.10;;;0.10;;
61373;SDS011;47242;48.158;-1.586;2024-03-02T11:09:25;0.20;;;0.20;;
61373;SDS011;47242;48.158;-1.586;2024-03-02T11:12:03;0.20;;;0.20;;
61373;SDS011;47242;48.158;-1.586;2024-03-02T11:14:37;0.10;;;0.10;;
61373;SDS011;47242;48.158;-1.586;2024-03-02T11:17:08;0.20;;;0.20;;
61373;SDS011;47242;48.158;-1.586;2024-03-02T11:19:35;0.20;;;0.20;;
61373;SDS011;47242;48.158;-1.586;2024-03-02T11:22:05;0.20;;;0.20;;
61373;SDS011;47242;48.158;-1.586;2024-03-02T11:24:33;0.20;;;0.20;;
61373;SDS011;47242;48.158;-1.586;2024-03-02T11:27:02;0.20;;;0.20;;
61373;SDS011;47242;48.158;-1.586;2024-03-02T11:32:15;0.20;;;0.20;;
61373;SDS011;47242;48.158;-1.586;2024-03-02T11:34:43;0.15;;;0.15;;
61373;SDS011;47242;48.158;-1.586;2024-03-02T11:37:14;0.20;;;0.20;;
61373;SDS011;47242;48.158;-1.586;2024-03-02T11:39:45;0.15;;;0.15;;
61373;SDS011;47242;48.158;-1.586;2024-03-02T11:42:12;0.15;;;0.15;;
61373;SDS011;47242;48.158;-1.586;2024-03-02T11:44:42;0.10;;;0.10;;
61373;SDS011;47242;48.158;-1.586;2024-03-02T11:47:11;0.10;;;0.10;;
61373;SDS011;47242;48.158;-1.586;2024-03-02T11:49:48;0.10;;;0.10;;
61373;SDS011;47242;48.158;-1.586;2024-03-02T11:52:16;0.10;;;0.10;;
61373;SDS011;47242;48.158;-1.586;2024-03-02T11:54:44;0.10;;;0.10;;
61373;SDS011;47242;48.158;-1.586;2024-03-02T11:57:15;0.10;;;0.10;;
61373;SDS011;47242;48.158;-1.586;2024-03-02T11:59:42;0.10;;;0.10;;
61373;SDS011;47242;48.158;-1.586;2024-03-02T12:02:14;0.10;;;0.10;;
61373;SDS011;47242;48.158;-1.586;2024-03-02T12:04:44;0.10;;;0.10;;
61373;SDS011;47242;48.158;-1.586;2024-03-02T12:07:10;0.10;;;0.10;;
61373;SDS011;47242;48.158;-1.586;2024-03-02T12:09:36;0.10;;;0.10;;
61373;SDS011;47242;48.158;-1.586;2024-03-02T12:14:29;0.10;;;0.10;;
61373;SDS011;47242;48.158;-1.586;2024-03-02T12:16:55;0.10;;;0.10;;
61373;SDS011;47242;48.158;-1.586;2024-03-02T12:19:22;0.10;;;0.10;;
61373;SDS011;47242;48.158;-1.586;2024-03-02T12:21:48;0.10;;;0.10;;
61373;SDS011;47242;48.158;-1.586;2024-03-02T12:24:13;0.10;;;0.10;;
61373;SDS011;47242;48.158;-1.586;2024-03-02T12:26:39;0.10;;;0.10;;
61373;SDS011;47242;48.158;-1.586;2024-03-02T12:29:05;0.10;;;0.10;;
61373;SDS011;47242;48.158;-1.586;2024-03-02T12:31:31;0.10;;;0.10;;
61373;SDS011;47242;48.158;-1.586;2024-03-02T12:33:57;0.10;;;0.10;;
61373;SDS011;47242;48.158;-1.586;2024-03-02T12:36:23;0.10;;;0.10;;
61373;SDS011;47242;48.158;-1.586;2024-03-02T12:38:52;0.10;;;0.10;;
61373;SDS011;47242;48.158;-1.586;2024-03-02T12:41:18;0.20;;;0.20;;
61373;SDS011;47242;48.158;-1.586;2024-03-02T12:43:43;0.13;;;0.13;;
61373;SDS011;47242;48.158;-1.586;2024-03-02T12:46:09;0.10;;;0.10;;
61373;SDS011;47242;48.158;-1.586;2024-03-02T12:48:35;0.20;;;0.20;;
61373;SDS011;47242;48.158;-1.586;2024-03-02T12:51:02;0.10;;;0.10;;
61373;SDS011;47242;48.158;-1.586;2024-03-02T12:53:28;0.10;;;0.10;;
61373;SDS011;47242;48.158;-1.586;2024-03-02T12:55:53;0.10;;;0.10;;
61373;SDS011;47242;48.158;-1.586;2024-03-02T12:58:21;0.10;;;0.10;;
61373;SDS011;47242;48.158;-1.586;2024-03-02T13:00:48;0.10;;;0.10;;
61373;SDS011;47242;48.158;-1.586;2024-03-02T13:03:13;0.10;;;0.10;;
61373;SDS011;47242;48.158;-1.586;2024-03-02T13:05:40;0.20;;;0.20;;
61373;SDS011;47242;48.158;-1.586;2024-03-02T13:08:06;0.17;;;0.17;;
61373;SDS011;47242;48.158;-1.586;2024-03-02T13:10:32;0.10;;;0.10;;
61373;SDS011;47242;48.158;-1.586;2024-03-02T13:12:58;0.10;;;0.10;;
61373;SDS011;47242;48.158;-1.586;2024-03-02T13:15:28;0.10;;;0.10;;
61373;SDS011;47242;48.158;-1.586;2024-03-02T13:17:54;0.10;;;0.10;;
61373;SDS011;47242;48.158;-1.586;2024-03-02T13:20:29;0.10;;;0.10;;
61373;SDS011;47242;48.158;-1.586;2024-03-02T13:22:56;0.10;;;0.10;;
61373;SDS011;47242;48.158;-1.586;2024-03-02T13:25:22;0.10;;;0.10;;
61373;SDS011;47242;48.158;-1.586;2024-03-02T13:27:48;0.10;;;0.10;;
61373;SDS011;47242;48.158;-1.586;2024-03-02T13:30:13;0.10;;;0.10;;
61373;SDS011;47242;48.158;-1.586;2024-03-02T13:32:39;0.10;;;0.10;;
61373;SDS011;47242;48.158;-1.586;2024-03-02T13:35:04;0.10;;;0.10;;
61373;SDS011;47242;48.158;-1.586;2024-03-02T13:37:30;0.10;;;0.10;;
61373;SDS011;47242;48.158;-1.586;2024-03-02T13:39:56;0.10;;;0.10;;
61373;SDS011;47242;48.158;-1.586;2024-03-02T13:42:21;0.10;;;0.10;;
61373;SDS011;47242;48.158;-1.586;2024-03-02T13:44:47;0.10;;;0.10;;
61373;SDS011;47242;48.158;-1.586;2024-03-02T13:47:14;0.10;;;0.10;;
61373;SDS011;47242;48.158;-1.586;2024-03-02T13:49:40;0.10;;;0.10;;
61373;SDS011;47242;48.158;-1.586;2024-03-02T13:52:09;0.10;;;0.10;;
61373;SDS011;47242;48.158;-1.586;2024-03-02T13:54:42;0.10;;;0.10;;
61373;SDS011;47242;48.158;-1.586;2024-03-02T13:57:10;0.10;;;0.10;;
61373;SDS011;47242;48.158;-1.586;2024-03-02T13:59:36;0.10;;;0.10;;
61373;SDS011;47242;48.158;-1.586;2024-03-02T14:02:02;0.10;;;0.10;;
61373;SDS011;47242;48.158;-1.586;2024-03-02T14:04:32;0.10;;;0.10;;
61373;SDS011;47242;48.158;-1.586;2024-03-02T14:06:59;0.10;;;0.10;;
61373;SDS011;47242;48.158;-1.586;2024-03-02T14:09:25;0.10;;;0.10;;
61373;SDS011;47242;48.158;-1.586;2024-03-02T14:11:52;0.10;;;0.10;;
61373;SDS011;47242;48.158;-1.586;2024-03-02T14:14:17;0.10;;;0.10;;
61373;SDS011;47242;48.158;-1.586;2024-03-02T14:16:43;0.10;;;0.10;;
61373;SDS011;47242;48.158;-1.586;2024-03-02T14:19:10;0.10;;;0.10;;
61373;SDS011;47242;48.158;-1.586;2024-03-02T14:21:37;0.10;;;0.10;;
61373;SDS011;47242;48.158;-1.586;2024-03-02T14:24:05;0.10;;;0.10;;
61373;SDS011;47242;48.158;-1.586;2024-03-02T14:26:34;0.10;;;0.10;;
61373;SDS011;47242;48.158;-1.586;2024-03-02T14:29:01;0.10;;;0.10;;
61373;SDS011;47242;48.158;-1.586;2024-03-02T14:31:27;0.10;;;0.10;;
61373;SDS011;47242;48.158;-1.586;2024-03-02T14:33:53;0.10;;;0.10;;
61373;SDS011;47242;48.158;-1.586;2024-03-02T14:36:19;0.10;;;0.10;;
61373;SDS011;47242;48.158;-1.586;2024-03-02T14:38:45;0.10;;;0.10;;
61373;SDS011;47242;48.158;-1.586;2024-03-02T14:41:11;0.10;;;0.10;;
61373;SDS011;47242;48.158;-1.586;2024-03-02T14:43:37;0.10;;;0.10;;
61373;SDS011;47242;48.158;-1.586;2024-03-02T14:46:03;0.10;;;0.10;;
61373;SDS011;47242;48.158;-1.586;2024-03-02T14:48:30;0.10;;;0.10;;
61373;SDS011;47242;48.158;-1.586;2024-03-02T14:50:55;0.10;;;0.10;;
61373;SDS011;47242;48.158;-1.586;2024-03-02T14:53:22;0.10;;;0.10;;
61373;SDS011;47242;48.158;-1.586;2024-03-02T14:55:47;0.10;;;0.10;;
61373;SDS011;47242;48.158;-1.586;2024-03-02T14:58:13;0.10;;;0.10;;
61373;SDS011;47242;48.158;-1.586;2024-03-02T15:00:38;0.10;;;0.10;;
61373;SDS011;47242;48.158;-1.586;2024-03-02T15:03:04;0.10;;;0.10;;
61373;SDS011;47242;48.158;-1.586;2024-03-02T15:05:33;0.10;;;0.10;;
61373;SDS011;47242;48.158;-1.586;2024-03-02T15:07:59;0.10;;;0.10;;
61373;SDS011;47242;48.158;-1.586;2024-03-02T15:10:27;0.10;;;0.10;;
61373;SDS011;47242;48.158;-1.586;2024-03-02T15:12:53;0.10;;;0.10;;
61373;SDS011;47242;48.158;-1.586;2024-03-02T15:15:19;0.10;;;0.10;;
61373;SDS011;47242;48.158;-1.586;2024-03-02T15:17:44;0.10;;;0.10;;
61373;SDS011;47242;48.158;-1.586;2024-03-02T15:20:10;0.10;;;0.10;;
61373;SDS011;47242;48.158;-1.586;2024-03-02T15:22:36;0.10;;;0.10;;
61373;SDS011;47242;48.158;-1.586;2024-03-02T15:25:02;0.10;;;0.10;;
61373;SDS011;47242;48.158;-1.586;2024-03-02T15:27:28;0.10;;;0.10;;
61373;SDS011;47242;48.158;-1.586;2024-03-02T15:29:53;0.10;;;0.10;;
61373;SDS011;47242;48.158;-1.586;2024-03-02T15:32:22;0.10;;;0.10;;
61373;SDS011;47242;48.158;-1.586;2024-03-02T15:34:48;0.10;;;0.10;;
61373;SDS011;47242;48.158;-1.586;2024-03-02T15:37:13;0.10;;;0.10;;
61373;SDS011;47242;48.158;-1.586;2024-03-02T15:39:39;0.10;;;0.10;;
61373;SDS011;47242;48.158;-1.586;2024-03-02T15:42:04;0.10;;;0.10;;
61373;SDS011;47242;48.158;-1.586;2024-03-02T15:44:30;0.10;;;0.10;;
61373;SDS011;47242;48.158;-1.586;2024-03-02T15:46:57;0.10;;;0.10;;
61373;SDS011;47242;48.158;-1.586;2024-03-02T15:49:23;0.10;;;0.10;;
61373;SDS011;47242;48.158;-1.586;2024-03-02T15:51:49;0.10;;;0.10;;
61373;SDS011;47242;48.158;-1.586;2024-03-02T15:54:15;0.10;;;0.10;;
61373;SDS011;47242;48.158;-1.586;2024-03-02T15:56:40;0.10;;;0.10;;
61373;SDS011;47242;48.158;-1.586;2024-03-02T15:59:06;0.10;;;0.10;;
61373;SDS011;47242;48.158;-1.586;2024-03-02T16:01:32;0.10;;;0.10;;
61373;SDS011;47242;48.158;-1.586;2024-03-02T16:03:57;0.10;;;0.10;;
61373;SDS011;47242;48.158;-1.586;2024-03-02T16:06:23;0.10;;;0.10;;
61373;SDS011;47242;48.158;-1.586;2024-03-02T16:08:48;0.10;;;0.10;;
61373;SDS011;47242;48.158;-1.586;2024-03-02T16:11:14;0.10;;;0.10;;
61373;SDS011;47242;48.158;-1.586;2024-03-02T16:13:40;0.10;;;0.10;;
61373;SDS011;47242;48.158;-1.586;2024-03-02T16:16:05;0.10;;;0.10;;
61373;SDS011;47242;48.158;-1.586;2024-03-02T16:18:31;0.10;;;0.10;;
61373;SDS011;47242;48.158;-1.586;2024-03-02T16:20:59;0.10;;;0.10;;
61373;SDS011;47242;48.158;-1.586;2024-03-02T16:23:24;0.10;;;0.10;;
61373;SDS011;47242;48.158;-1.586;2024-03-02T16:25:50;0.10;;;0.10;;
61373;SDS011;47242;48.158;-1.586;2024-03-02T16:28:15;0.10;;;0.10;;
61373;SDS011;47242;48.158;-1.586;2024-03-02T16:30:41;0.10;;;0.10;;
61373;SDS011;47242;48.158;-1.586;2024-03-02T16:33:07;0.10;;;0.10;;
61373;SDS011;47242;48.158;-1.586;2024-03-02T16:35:33;0.10;;;0.10;;
61373;SDS011;47242;48.158;-1.586;2024-03-02T16:37:58;0.10;;;0.10;;
61373;SDS011;47242;48.158;-1.586;2024-03-02T16:40:24;0.10;;;0.10;;
61373;SDS011;47242;48.158;-1.586;2024-03-02T16:42:50;0.10;;;0.10;;
61373;SDS011;47242;48.158;-1.586;2024-03-02T16:45:15;0.10;;;0.10;;
61373;SDS011;47242;48.158;-1.586;2024-03-02T16:47:41;0.10;;;0.10;;
61373;SDS011;47242;48.158;-1.586;2024-03-02T16:50:06;0.10;;;0.10;;
61373;SDS011;47242;48.158;-1.586;2024-03-02T16:52:36;0.10;;;0.10;;
61373;SDS011;47242;48.158;-1.586;2024-03-02T16:55:01;0.10;;;0.10;;
61373;SDS011;47242;48.158;-1.586;2024-03-02T16:57:28;0.10;;;0.10;;
61373;SDS011;47242;48.158;-1.586;2024-03-02T16:59:53;0.10;;;0.10;;
61373;SDS011;47242;48.158;-1.586;2024-03-02T17:02:19;0.10;;;0.10;;
61373;SDS011;47242;48.158;-1.586;2024-03-02T17:04:44;0.10;;;0.10;;
61373;SDS011;47242;48.158;-1.586;2024-03-02T17:07:10;0.10;;;0.10;;
61373;SDS011;47242;48.158;-1.586;2024-03-02T17:09:36;0.10;;;0.10;;
61373;SDS011;47242;48.158;-1.586;2024-03-02T17:12:02;0.10;;;0.10;;
61373;SDS011;47242;48.158;-1.586;2024-03-02T17:14:27;0.10;;;0.10;;
61373;SDS011;47242;48.158;-1.586;2024-03-02T17:16:53;0.10;;;0.10;;
61373;SDS011;47242;48.158;-1.586;2024-03-02T17:19:18;0.10;;;0.10;;
61373;SDS011;47242;48.158;-1.586;2024-03-02T17:21:44;0.10;;;0.10;;
61373;SDS011;47242;48.158;-1.586;2024-03-02T17:24:10;0.10;;;0.10;;
61373;SDS011;47242;48.158;-1.586;2024-03-02T17:26:36;0.10;;;0.10;;
61373;SDS011;47242;48.158;-1.586;2024-03-02T17:29:04;0.10;;;0.10;;
61373;SDS011;47242;48.158;-1.586;2024-03-02T17:31:30;0.10;;;0.10;;
61373;SDS011;47242;48.158;-1.586;2024-03-02T17:33:56;0.10;;;0.10;;
61373;SDS011;47242;48.158;-1.586;2024-03-02T17:36:21;0.10;;;0.10;;
61373;SDS011;47242;48.158;-1.586;2024-03-02T17:38:47;0.10;;;0.10;;
61373;SDS011;47242;48.158;-1.586;2024-03-02T17:41:13;0.10;;;0.10;;
61373;SDS011;47242;48.158;-1.586;2024-03-02T17:43:38;0.10;;;0.10;;
61373;SDS011;47242;48.158;-1.586;2024-03-02T17:46:04;0.10;;;0.10;;
61373;SDS011;47242;48.158;-1.586;2024-03-02T17:48:30;0.10;;;0.10;;
61373;SDS011;47242;48.158;-1.586;2024-03-02T17:50:56;0.10;;;0.10;;
61373;SDS011;47242;48.158;-1.586;2024-03-02T17:53:22;0.10;;;0.10;;
61373;SDS011;47242;48.158;-1.586;2024-03-02T17:55:47;0.10;;;0.10;;
61373;SDS011;47242;48.158;-1.586;2024-03-02T17:58:13;0.10;;;0.10;;
61373;SDS011;47242;48.158;-1.586;2024-03-02T18:00:39;0.10;;;0.10;;
61373;SDS011;47242;48.158;-1.586;2024-03-02T18:03:05;0.10;;;0.10;;
61373;SDS011;47242;48.158;-1.586;2024-03-02T18:05:31;0.10;;;0.10;;
61373;SDS011;47242;48.158;-1.586;2024-03-02T18:07:57;0.10;;;0.10;;
61373;SDS011;47242;48.158;-1.586;2024-03-02T18:10:23;0.10;;;0.10;;
61373;SDS011;47242;48.158;-1.586;2024-03-02T18:12:48;0.10;;;0.10;;
61373;SDS011;47242;48.158;-1.586;2024-03-02T18:15:14;0.10;;;0.10;;
61373;SDS011;47242;48.158;-1.586;2024-03-02T18:17:40;0.10;;;0.10;;
61373;SDS011;47242;48.158;-1.586;2024-03-02T18:20:06;0.10;;;0.10;;
61373;SDS011;47242;48.158;-1.586;2024-03-02T18:22:33;0.10;;;0.10;;
61373;SDS011;47242;48.158;-1.586;2024-03-02T18:25:00;0.10;;;0.10;;
61373;SDS011;47242;48.158;-1.586;2024-03-02T18:27:26;0.10;;;0.10;;
61373;SDS011;47242;48.158;-1.586;2024-03-02T18:29:51;0.10;;;0.10;;
61373;SDS011;47242;48.158;-1.586;2024-03-02T18:32:18;0.10;;;0.10;;
61373;SDS011;47242;48.158;-1.586;2024-03-02T18:34:44;0.10;;;0.10;;
61373;SDS011;47242;48.158;-1.586;2024-03-02T18:37:11;0.10;;;0.10;;
61373;SDS011;47242;48.158;-1.586;2024-03-02T18:39:38;0.10;;;0.10;;
61373;SDS011;47242;48.158;-1.586;2024-03-02T18:42:04;0.10;;;0.10;;
61373;SDS011;47242;48.158;-1.586;2024-03-02T18:44:29;0.10;;;0.10;;
61373;SDS011;47242;48.158;-1.586;2024-03-02T18:46:55;0.10;;;0.10;;
61373;SDS011;47242;48.158;-1.586;2024-03-02T18:49:20;0.10;;;0.10;;
61373;SDS011;47242;48.158;-1.586;2024-03-02T18:51:48;0.10;;;0.10;;
61373;SDS011;47242;48.158;-1.586;2024-03-02T18:54:13;0.10;;;0.10;;
61373;SDS011;47242;48.158;-1.586;2024-03-02T18:56:41;0.10;;;0.10;;
61373;SDS011;47242;48.158;-1.586;2024-03-02T18:59:06;0.10;;;0.10;;
61373;SDS011;47242;48.158;-1.586;2024-03-02T19:01:32;0.10;;;0.10;;
61373;SDS011;47242;48.158;-1.586;2024-03-02T19:03:58;0.10;;;0.10;;
61373;SDS011;47242;48.158;-1.586;2024-03-02T19:06:23;0.10;;;0.10;;
61373;SDS011;47242;48.158;-1.586;2024-03-02T19:08:49;0.10;;;0.10;;
61373;SDS011;47242;48.158;-1.586;2024-03-02T19:11:15;0.10;;;0.10;;
61373;SDS011;47242;48.158;-1.586;2024-03-02T19:13:41;0.10;;;0.10;;
61373;SDS011;47242;48.158;-1.586;2024-03-02T19:16:11;0.10;;;0.10;;
61373;SDS011;47242;48.158;-1.586;2024-03-02T19:18:38;0.10;;;0.10;;
61373;SDS011;47242;48.158;-1.586;2024-03-02T19:21:04;0.10;;;0.10;;
61373;SDS011;47242;48.158;-1.586;2024-03-02T19:23:30;0.10;;;0.10;;
61373;SDS011;47242;48.158;-1.586;2024-03-02T19:25:56;0.10;;;0.10;;
61373;SDS011;47242;48.158;-1.586;2024-03-02T19:28:22;0.10;;;0.10;;
61373;SDS011;47242;48.158;-1.586;2024-03-02T19:30:48;0.10;;;0.10;;
61373;SDS011;47242;48.158;-1.586;2024-03-02T19:33:13;0.10;;;0.10;;
61373;SDS011;47242;48.158;-1.586;2024-03-02T19:35:42;0.10;;;0.10;;
61373;SDS011;47242;48.158;-1.586;2024-03-02T19:38:11;0.10;;;0.10;;
61373;SDS011;47242;48.158;-1.586;2024-03-02T19:40:37;0.10;;;0.10;;
61373;SDS011;47242;48.158;-1.586;2024-03-02T19:43:03;0.20;;;0.20;;
61373;SDS011;47242;48.158;-1.586;2024-03-02T19:45:29;0.10;;;0.10;;
61373;SDS011;47242;48.158;-1.586;2024-03-02T19:47:55;0.10;;;0.10;;
61373;SDS011;47242;48.158;-1.586;2024-03-02T19:50:21;0.10;;;0.10;;
61373;SDS011;47242;48.158;-1.586;2024-03-02T19:52:46;0.10;;;0.10;;
61373;SDS011;47242;48.158;-1.586;2024-03-02T19:55:12;0.10;;;0.10;;
61373;SDS011;47242;48.158;-1.586;2024-03-02T19:57:38;0.10;;;0.10;;
61373;SDS011;47242;48.158;-1.586;2024-03-02T20:00:13;0.10;;;0.10;;
61373;SDS011;47242;48.158;-1.586;2024-03-02T20:02:39;0.10;;;0.10;;
61373;SDS011;47242;48.158;-1.586;2024-03-02T20:05:05;0.10;;;0.10;;
61373;SDS011;47242;48.158;-1.586;2024-03-02T20:07:33;0.10;;;0.10;;